Terminal Aerodrome Forecast
Issued by NWS Wichita, KS

Home | Current Version | Previous Version | Text Only | Print | Product List | Glossary Off
Versions: 1 2 3 4 5 6 7 8 9 10 11 12 13 14 15 16 17 18

000
FTUS43 KICT 131100
TAFICT
TAF
KICT 131135Z 1312/1412 17012KT P6SM SCT100 BKN150
     FM131600 25015KT P6SM SCT030 BKN060
     FM132200 35026G35KT P6SM VCSH SCT015 OVC025
     FM140900 34020G30KT 5SM -RASN BR OVC020=

USA.gov is the U.S. government's official web portal to all federal, state and local government web resources and services.